Time;durP1;ratioP1;P1;durP2;ratioP2;P2;SDS_P1;SDS_P2;PMS_P1;PMS_P2;Temp;Humidity;BMP_temperature;BMP_pressure;BME280_temperature;BME280_humidity;BME280_pressure;Samples;Min_cycle;Max_cycle;Signal;HPM_P1;HPM_P2
2021/12/09 00:02:16;;;;;;;92.00;53.98;;;;;;;-0.38;88.11;99227.91;2885213;82;21058;-69
2021/12/09 00:06:22;;;;;;;92.35;51.63;;;;;;;-0.33;88.12;99211.50;2885491;82;21019;-69
2021/12/09 00:10:21;;;;;;;81.05;49.27;;;;;;;-0.33;88.00;99228.97;2885516;82;21073;-69
2021/12/09 00:14:31;;;;;;;82.25;46.45;;;;;;;-0.40;88.04;99228.91;2886635;82;21022;-68
2021/12/09 00:18:33;;;;;;;87.00;48.20;;;;;;;-0.37;88.04;99228.28;2886472;82;21018;-69
2021/12/09 00:22:35;;;;;;;85.75;52.13;;;;;;;-0.49;87.91;99214.11;2880650;82;21026;-69
2021/12/09 00:26:38;;;;;;;114.22;64.03;;;;;;;-0.41;88.05;99231.14;2871091;82;21050;-69
2021/12/09 00:30:41;;;;;;;131.05;68.37;;;;;;;-0.40;87.98;99223.67;2871192;83;21057;-69
2021/12/09 00:34:46;;;;;;;114.80;62.62;;;;;;;-0.51;88.11;99218.58;2871254;83;21066;-68
2021/12/09 00:38:46;;;;;;;165.10;89.47;;;;;;;-0.58;88.60;99223.75;2871004;83;21086;-68
2021/12/09 00:42:48;;;;;;;119.42;61.45;;;;;;;-0.56;88.68;99223.21;2871232;82;21062;-68
2021/12/09 00:46:49;;;;;;;100.72;57.45;;;;;;;-0.56;88.77;99228.44;2842079;84;20994;-69
2021/12/09 00:50:53;;;;;;;108.52;59.38;;;;;;;-0.61;88.61;99206.46;2842036;84;20982;-69
2021/12/09 00:54:56;;;;;;;92.50;50.58;;;;;;;-0.59;88.53;99214.20;2841871;84;20995;-68
2021/12/09 00:58:58;;;;;;;102.10;55.60;;;;;;;-0.59;88.53;99214.20;2841532;84;21061;-68
2021/12/09 01:03:00;;;;;;;92.05;49.80;;;;;;;-0.54;88.83;99220.50;2841732;84;21009;-68
2021/12/09 01:07:02;;;;;;;87.27;47.48;;;;;;;-0.55;88.52;99220.98;2841965;84;21050;-68
2021/12/09 01:11:05;;;;;;;84.40;47.60;;;;;;;-0.66;88.48;99194.56;2841729;84;21102;-68
2021/12/09 01:15:10;;;;;;;76.47;45.52;;;;;;;-0.58;88.53;99217.23;2841478;84;21081;-68
2021/12/09 01:19:12;;;;;;;90.42;45.78;;;;;;;-0.58;88.53;99217.23;2841647;84;21050;-68
2021/12/09 01:23:14;;;;;;;91.87;52.43;;;;;;;-0.60;88.48;99213.82;2865265;82;21089;-69
2021/12/09 01:27:16;;;;;;;87.12;44.30;;;;;;;-0.60;88.68;99221.21;2891180;82;21097;-68
2021/12/09 01:31:32;;;;;;;88.35;45.60;;;;;;;-0.64;88.57;99199.24;2891124;82;20939;-69
2021/12/09 01:35:33;;;;;;;83.25;49.63;;;;;;;-0.65;88.82;99197.55;2888820;82;20994;-69
2021/12/09 01:39:34;;;;;;;83.65;47.83;;;;;;;-0.49;88.55;99210.64;2890906;82;21050;-69
2021/12/09 01:43:36;;;;;;;95.28;51.10;;;;;;;-0.58;88.32;99212.83;2891128;82;21073;-69
2021/12/09 01:47:38;;;;;;;93.17;48.95;;;;;;;-0.52;88.34;99207.74;2890961;82;21081;-69
2021/12/09 01:51:41;;;;;;;83.50;49.95;;;;;;;-0.52;87.95;99216.89;2891382;82;21025;-69
2021/12/09 01:55:43;;;;;;;86.80;50.08;;;;;;;-0.41;88.03;99218.92;2891129;82;20955;-69
2021/12/09 01:59:47;;;;;;;85.50;49.85;;;;;;;-0.42;87.80;99217.24;2891159;82;21046;-69
2021/12/09 02:03:50;;;;;;;90.85;47.33;;;;;;;-0.40;88.27;99212.78;2890677;82;21061;-69
2021/12/09 02:07:51;;;;;;;92.37;50.50;;;;;;;-0.40;88.27;99212.78;2890887;82;21032;-69
2021/12/09 02:11:53;;;;;;;83.65;52.03;;;;;;;-0.45;87.80;99190.80;2890778;82;21014;-69
2021/12/09 02:15:56;;;;;;;82.25;46.88;;;;;;;-0.45;87.80;99190.80;2890938;82;21046;-69
2021/12/09 02:20:01;;;;;;;86.20;49.03;;;;;;;-0.49;87.70;99181.45;2891027;82;20998;-69
2021/12/09 02:24:08;;;;;;;70.20;43.95;;;;;;;-0.40;87.76;99184.48;2890636;82;21085;-69
2021/12/09 02:28:09;;;;;;;98.25;49.05;;;;;;;-0.30;87.79;99207.89;2891107;82;21090;-69
2021/12/09 02:32:11;;;;;;;82.20;50.58;;;;;;;-0.42;87.73;99199.40;2890681;82;21065;-68
2021/12/09 02:36:13;;;;;;;83.10;51.08;;;;;;;-0.53;87.85;99190.38;2890981;82;21068;-69
2021/12/09 02:40:15;;;;;;;84.65;45.50;;;;;;;-0.53;87.85;99190.38;2892464;82;21670;-69
2021/12/09 02:44:20;;;;;;;94.25;50.08;;;;;;;-0.44;88.06;99218.62;2892273;82;20991;-69
2021/12/09 02:48:23;;;;;;;100.38;54.95;;;;;;;-0.38;87.91;99214.02;2892459;82;20927;-69
2021/12/09 02:52:25;;;;;;;100.27;59.18;;;;;;;-0.60;87.92;99181.17;2892286;82;21049;-69
2021/12/09 02:56:27;;;;;;;101.30;53.60;;;;;;;-0.47;88.19;99196.58;2892216;82;21077;-69
2021/12/09 03:00:30;;;;;;;82.85;50.05;;;;;;;-0.47;88.19;99196.58;2892030;82;21026;-69
2021/12/09 03:04:53;;;;;;;78.78;49.42;;;;;;;-0.46;88.15;99189.12;2891963;82;21045;-69
2021/12/09 03:08:55;;;;;;;95.75;53.35;;;;;;;-0.46;88.15;99189.12;2892105;82;21053;-68
2021/12/09 03:13:00;;;;;;;92.22;49.25;;;;;;;-0.41;87.99;99205.00;2891714;82;21013;-68
2021/12/09 03:17:02;;;;;;;81.90;46.58;;;;;;;-0.46;87.67;99193.52;2892273;82;20986;-68
2021/12/09 03:21:03;;;;;;;86.50;51.98;;;;;;;-0.50;87.60;99187.60;2892281;82;21491;-68
2021/12/09 03:25:09;;;;;;;104.30;55.20;;;;;;;-0.39;87.76;99218.38;2878133;82;21011;-68
2021/12/09 03:29:12;;;;;;;101.07;51.47;;;;;;;-0.40;88.12;99208.00;2864990;82;20991;-68
2021/12/09 03:33:14;;;;;;;80.28;45.92;;;;;;;-0.44;87.77;99208.17;2820416;84;21065;-69
2021/12/09 03:37:21;;;;;;;79.00;49.60;;;;;;;-0.38;87.91;99200.47;2820266;84;20994;-68
2021/12/09 03:41:23;;;;;;;82.95;51.33;;;;;;;-0.44;87.76;99174.67;2820415;84;21006;-69
2021/12/09 03:45:24;;;;;;;85.72;45.78;;;;;;;-0.36;87.65;99176.40;2863629;83;20979;-68
2021/12/09 03:49:27;;;;;;;89.32;51.45;;;;;;;-0.44;87.54;99191.66;2872577;83;21014;-68
2021/12/09 03:53:29;;;;;;;83.40;47.83;;;;;;;-0.44;87.54;99191.66;2842001;82;20983;-69
2021/12/09 03:57:31;;;;;;;92.00;49.53;;;;;;;-0.34;87.61;99193.31;2824617;83;21498;-69
2021/12/09 04:01:35;;;;;;;74.27;44.65;;;;;;;-0.27;87.40;99201.67;2858867;83;21011;-68
2021/12/09 04:05:37;;;;;;;81.05;46.35;;;;;;;-0.25;87.18;99209.79;2872387;83;21046;-69
2021/12/09 04:09:39;;;;;;;95.22;53.65;;;;;;;-0.22;87.06;99212.23;2833536;83;21030;-69
2021/12/09 04:13:41;;;;;;;93.62;49.75;;;;;;;-0.22;87.06;99212.23;2820113;84;21005;-69
2021/12/09 04:17:43;;;;;;;84.25;48.98;;;;;;;-0.14;86.60;99235.34;2820244;84;20979;-68
2021/12/09 04:21:46;;;;;;;88.42;48.30;;;;;;;-0.12;86.61;99230.87;2820058;84;21010;-71
2021/12/09 04:25:47;;;;;;;87.02;48.35;;;;;;;-0.07;86.10;99205.79;2819920;83;21022;-72
2021/12/09 04:29:49;;;;;;;93.25;48.63;;;;;;;-0.20;85.77;99187.33;2820075;84;21022;-71
2021/12/09 04:33:51;;;;;;;72.42;42.65;;;;;;;-0.18;86.06;99219.45;2850907;83;20999;-72
2021/12/09 04:37:53;;;;;;;125.20;65.85;;;;;;;-0.18;86.06;99219.45;2872217;83;21089;-71
2021/12/09 04:41:55;;;;;;;109.90;62.83;;;;;;;-0.13;85.94;99215.29;2872223;83;21089;-72
2021/12/09 04:45:59;;;;;;;138.97;72.58;;;;;;;-0.11;86.13;99229.12;2872094;83;20975;-72
2021/12/09 04:50:00;;;;;;;77.27;42.93;;;;;;;-0.09;86.07;99206.34;2872364;83;21023;-72
2021/12/09 04:54:04;;;;;;;113.60;65.25;;;;;;;-0.22;85.89;99220.55;2872347;83;21067;-72
2021/12/09 04:58:07;;;;;;;107.97;58.92;;;;;;;-0.13;86.15;99233.59;2872092;82;20987;-71
2021/12/09 05:02:16;;;;;;;106.75;63.83;;;;;;;-0.16;86.06;99235.44;2855595;82;20994;-72
2021/12/09 05:06:13;;;;;;;93.70;59.65;;;;;;;-0.09;86.09;99254.70;2871239;83;20955;-71
2021/12/09 05:10:16;;;;;;;92.40;55.33;;;;;;;-0.03;85.79;99242.15;2853708;83;20974;-72
2021/12/09 05:14:20;;;;;;;81.45;42.60;;;;;;;-0.05;85.62;99250.99;2819908;84;20946;-72
2021/12/09 05:18:25;;;;;;;94.62;54.48;;;;;;;-0.31;85.98;99265.84;2820777;83;21006;-72
2021/12/09 05:22:27;;;;;;;95.80;52.13;;;;;;;-0.15;85.67;99241.50;2875454;82;21025;-74
2021/12/09 05:26:33;;;;;;;95.38;53.35;;;;;;;-0.21;85.70;99249.20;2848979;83;21066;-74
2021/12/09 05:32:07;;;;;;;94.15;52.40;;;;;;;-0.21;86.02;99232.21;2858563;82;21566;-69
2021/12/09 05:34:46;;;;;;;90.72;53.98;;;;;;;-0.13;86.04;99252.71;2851433;82;21129;-69
2021/12/09 05:38:49;;;;;;;98.70;55.85;;;;;;;-0.16;85.75;99241.98;2794110;85;21028;-71
2021/12/09 05:42:50;;;;;;;86.28;53.50;;;;;;;-0.17;86.07;99251.20;2794495;85;21547;-71
2021/12/09 05:46:53;;;;;;;90.15;52.20;;;;;;;-0.16;86.00;99240.67;2794268;85;20999;-70
2021/12/09 05:50:55;;;;;;;87.17;51.40;;;;;;;-0.19;86.20;99247.37;2794483;85;21074;-71
2021/12/09 05:54:57;;;;;;;83.70;49.23;;;;;;;-0.10;86.05;99242.56;2794379;85;21062;-71
2021/12/09 05:58:59;;;;;;;91.85;53.75;;;;;;;-0.09;85.87;99244.25;2794330;85;21066;-71
2021/12/09 06:03:01;;;;;;;84.90;50.65;;;;;;;-0.04;86.03;99239.16;2794430;85;21666;-70
2021/12/09 06:07:03;;;;;;;62.38;34.67;;;;;;;-0.03;85.76;99225.16;2794302;85;21039;-70
2021/12/09 06:11:07;;;;;;;102.42;61.68;;;;;;;-0.24;85.75;99221.92;2794382;85;21023;-71
2021/12/09 06:15:09;;;;;;;123.58;62.17;;;;;;;-0.11;85.64;99212.12;2794224;85;21051;-70
2021/12/09 06:19:11;;;;;;;89.77;53.63;;;;;;;-0.05;85.65;99220.48;2793911;85;21070;-70
2021/12/09 06:23:14;;;;;;;79.05;47.20;;;;;;;-0.04;85.52;99215.63;2829576;82;21090;-71
2021/12/09 06:27:15;;;;;;;93.85;58.83;;;;;;;-0.04;85.51;99229.15;2886192;82;21006;-71
2021/12/09 06:31:18;;;;;;;86.97;53.48;;;;;;;-0.05;85.47;99230.08;2886446;82;20974;-70
2021/12/09 06:35:20;;;;;;;95.17;49.08;;;;;;;-0.11;85.66;99245.63;2886289;82;21036;-70
2021/12/09 06:39:22;;;;;;;94.62;57.67;;;;;;;-0.17;85.88;99250.75;2886160;82;21014;-71
2021/12/09 06:43:24;;;;;;;74.10;36.60;;;;;;;-0.19;86.45;99270.05;2886125;82;21053;-70
2021/12/09 06:47:27;;;;;;;78.35;42.08;;;;;;;-0.40;88.97;99286.39;2886256;82;21022;-70
2021/12/09 06:51:28;;;;;;;78.72;42.62;;;;;;;-0.40;88.97;99286.39;2886496;82;21061;-70
2021/12/09 06:55:30;;;;;;;81.30;39.50;;;;;;;-0.35;88.81;99280.48;2886297;82;21006;-70
2021/12/09 06:59:32;;;;;;;75.70;47.75;;;;;;;-0.61;89.99;99286.58;2886263;82;20998;-70
2021/12/09 07:03:38;;;;;;;82.02;39.25;;;;;;;-0.70;90.79;99263.56;2886366;82;21014;-70
2021/12/09 07:07:39;;;;;;;80.28;37.55;;;;;;;-0.70;90.79;99263.56;2886095;82;21050;-70
2021/12/09 07:11:50;;;;;;;83.70;37.65;;;;;;;-0.78;91.29;99270.04;2886199;82;21057;-70
2021/12/09 07:15:48;;;;;;;92.22;42.65;;;;;;;-0.92;91.94;99268.59;2885658;82;21010;-70
2021/12/09 07:19:50;;;;;;;75.83;36.30;;;;;;;-0.92;91.94;99268.59;2886354;82;21001;-71
2021/12/09 07:23:52;;;;;;;75.35;41.80;;;;;;;-0.72;91.65;99279.30;2881262;82;21031;-70
2021/12/09 07:27:54;;;;;;;86.32;50.35;;;;;;;-0.76;92.02;99298.22;2864905;83;21082;-70
2021/12/09 07:31:56;;;;;;;86.32;49.03;;;;;;;-0.52;91.08;99245.63;2864844;83;20975;-71
2021/12/09 07:35:58;;;;;;;95.07;51.40;;;;;;;-0.49;90.73;99248.07;2864972;83;21042;-70
2021/12/09 07:39:59;;;;;;;90.95;44.70;;;;;;;-0.49;91.08;99232.84;2864717;83;21042;-70
2021/12/09 07:44:02;;;;;;;89.35;47.58;;;;;;;-0.47;91.20;99253.23;2864897;83;21019;-70
2021/12/09 07:48:04;;;;;;;88.72;42.90;;;;;;;-0.48;91.46;99252.38;2864692;83;21025;-71
2021/12/09 07:52:07;;;;;;;99.47;45.12;;;;;;;-0.57;92.41;99262.02;2864450;83;21022;-71
2021/12/09 07:56:08;;;;;;;89.35;48.85;;;;;;;-0.63;92.56;99264.92;2864473;83;21007;-70
2021/12/09 08:00:15;;;;;;;71.30;40.40;;;;;;;-0.49;92.30;99250.69;2864563;83;21007;-71
2021/12/09 08:04:17;;;;;;;82.85;46.05;;;;;;;-0.40;91.68;99238.05;2864549;83;21086;-70
2021/12/09 08:08:20;;;;;;;89.45;50.67;;;;;;;-0.53;92.33;99250.47;2864428;83;20999;-70
2021/12/09 08:12:22;;;;;;;103.83;44.75;;;;;;;-0.53;92.33;99250.47;2864539;83;21011;-70
2021/12/09 08:16:24;;;;;;;101.40;55.67;;;;;;;-0.41;92.36;99265.11;2864426;83;21026;-70
2021/12/09 08:20:26;;;;;;;72.95;41.48;;;;;;;-0.39;92.07;99265.86;2864395;83;20979;-70
2021/12/09 08:24:28;;;;;;;90.77;56.20;;;;;;;-0.39;92.07;99265.86;2864244;82;21074;-70
2021/12/09 08:28:30;;;;;;;98.25;52.17;;;;;;;-0.18;91.37;99278.27;2864399;83;21007;-70
2021/12/09 08:32:34;;;;;;;86.63;46.08;;;;;;;-0.34;91.32;99252.11;2864612;83;21031;-70
2021/12/09 08:36:35;;;;;;;92.92;48.35;;;;;;;-0.25;91.89;99292.13;2864398;83;20980;-70
2021/12/09 08:40:37;;;;;;;93.60;41.80;;;;;;;-0.15;91.15;99276.34;2864144;83;21011;-70
2021/12/09 08:44:39;;;;;;;81.82;44.03;;;;;;;-0.15;91.15;99276.34;2864722;83;21034;-70
2021/12/09 08:48:41;;;;;;;64.45;34.08;;;;;;;-0.07;91.39;99271.16;2864667;83;21005;-70
2021/12/09 08:52:43;;;;;;;83.85;44.77;;;;;;;0.01;91.18;99274.21;2864573;83;20995;-70
2021/12/09 08:56:50;;;;;;;97.08;48.05;;;;;;;0.24;90.97;99255.92;2864664;83;21070;-70
2021/12/09 09:00:52;;;;;;;86.72;42.27;;;;;;;0.24;90.97;99255.92;2864250;83;21079;-70
2021/12/09 09:04:53;;;;;;;85.75;48.40;;;;;;;0.30;90.57;99251.30;2864653;83;21031;-70
2021/12/09 09:08:57;;;;;;;85.47;50.83;;;;;;;0.40;90.02;99244.16;2864900;83;21018;-70
2021/12/09 09:12:58;;;;;;;84.90;51.20;;;;;;;0.46;90.08;99243.42;2864697;83;21070;-70
2021/12/09 09:17:01;;;;;;;101.12;57.98;;;;;;;0.44;90.46;99248.73;2864946;83;20991;-70
2021/12/09 09:21:02;;;;;;;85.10;45.15;;;;;;;0.35;90.68;99248.78;2864644;83;20979;-70
2021/12/09 09:25:08;;;;;;;98.90;49.23;;;;;;;0.44;90.50;99254.45;2872874;82;21026;-70
2021/12/09 09:29:10;;;;;;;77.75;41.50;;;;;;;0.37;91.04;99241.69;2886455;82;21046;-70
2021/12/09 09:33:14;;;;;;;97.67;56.05;;;;;;;0.35;90.42;99238.32;2886420;82;21523;-70
2021/12/09 09:37:16;;;;;;;90.40;51.48;;;;;;;0.40;90.80;99240.23;2886521;82;21029;-70
2021/12/09 09:41:18;;;;;;;99.20;52.90;;;;;;;0.41;90.79;99243.23;2886389;82;21017;-70
2021/12/09 09:45:19;;;;;;;120.13;65.17;;;;;;;0.51;91.16;99227.84;2886690;82;20994;-71
2021/12/09 09:49:21;;;;;;;113.42;57.00;;;;;;;0.49;90.39;99236.70;2886375;82;20947;-70
2021/12/09 09:53:23;;;;;;;95.70;56.10;;;;;;;0.57;90.79;99256.72;2886366;82;21049;-70
2021/12/09 09:57:25;;;;;;;108.80;53.33;;;;;;;0.88;90.01;99259.35;2886265;82;21099;-70
2021/12/09 10:01:30;;;;;;;99.52;64.85;;;;;;;0.80;89.71;99270.30;2886293;82;20998;-70
2021/12/09 10:05:36;;;;;;;102.38;64.53;;;;;;;0.84;89.40;99267.39;2886498;82;21073;-70
2021/12/09 10:09:36;;;;;;;103.42;52.33;;;;;;;0.89;89.16;99261.06;2885842;82;21018;-71
2021/12/09 10:13:41;;;;;;;89.22;50.10;;;;;;;0.87;89.57;99255.91;2886334;82;21050;-70
2021/12/09 10:17:47;;;;;;;104.70;64.17;;;;;;;0.94;88.75;99271.63;2886569;82;21030;-70
2021/12/09 10:21:49;;;;;;;104.70;62.00;;;;;;;0.95;88.15;99265.45;2886441;82;20975;-70
2021/12/09 10:26:27;;;;;;;177.70;99.32;;;;;;;1.03;88.16;99250.61;2856926;82;21058;-70
2021/12/09 10:30:30;;;;;;;235.43;116.57;;;;;;;0.87;88.54;99254.59;2886121;82;21042;-70
2021/12/09 10:34:41;;;;;;;174.50;97.27;;;;;;;0.83;89.09;99256.55;2886363;82;21030;-70
2021/12/09 10:38:45;;;;;;;195.45;100.33;;;;;;;0.94;88.45;99255.09;2885718;82;21054;-70
2021/12/09 10:42:53;;;;;;;103.97;50.65;;;;;;;1.06;88.66;99254.34;2886215;82;21069;-70
2021/12/09 10:47:07;;;;;;;101.25;61.05;;;;;;;1.07;88.77;99265.20;2886385;82;21002;-69
2021/12/09 10:55:14;;;;;;;99.62;59.10;;;;;;;1.39;87.25;99241.48;2886508;82;21018;-70
2021/12/09 10:59:21;;;;;;;96.47;58.78;;;;;;;1.48;86.51;99229.60;2883283;82;21081;-70
2021/12/09 11:03:49;;;;;;;104.45;59.40;;;;;;;1.60;86.31;99214.07;2883275;82;21015;-70
2021/12/09 11:07:51;;;;;;;84.58;51.53;;;;;;;1.67;85.85;99221.92;2886189;82;20994;-70
2021/12/09 11:11:56;;;;;;;86.90;47.90;;;;;;;1.71;85.39;99211.61;2886372;82;21077;-71
2021/12/09 11:15:58;;;;;;;102.80;58.92;;;;;;;1.60;85.72;99220.62;2886969;82;21025;-70
2021/12/09 11:20:03;;;;;;;94.83;54.70;;;;;;;1.62;85.60;99205.64;2886987;82;21014;-70
2021/12/09 11:24:12;;;;;;;107.17;60.67;;;;;;;1.68;85.52;99208.73;2887612;81;21026;-70
2021/12/09 11:28:14;;;;;;;98.33;54.23;;;;;;;1.75;85.61;99214.89;2840674;83;21019;-69
2021/12/09 11:32:38;;;;;;;92.42;56.63;;;;;;;1.71;85.77;99232.13;2840417;84;21089;-71
2021/12/09 11:36:49;;;;;;;99.50;57.55;;;;;;;1.56;86.93;99260.11;2838878;84;21016;-71
2021/12/09 11:40:57;;;;;;;84.90;51.65;;;;;;;1.45;88.10;99245.52;2839887;84;30591;-70
2021/12/09 11:44:55;;;;;;;91.15;51.75;;;;;;;1.61;86.77;99202.16;2839498;84;20991;-70
2021/12/09 11:48:57;;;;;;;96.42;56.92;;;;;;;1.79;85.71;99184.45;2840399;84;21046;-71
2021/12/09 11:53:01;;;;;;;96.17;54.38;;;;;;;1.90;85.28;99189.47;2840430;84;21018;-70
2021/12/09 11:57:15;;;;;;;91.12;48.42;;;;;;;1.85;85.30;99196.31;2840581;84;21065;-70
2021/12/09 12:15:01;;;;;;;94.22;55.12;;;;;;;1.91;84.83;99191.16;2840498;84;21065;-70
2021/12/09 12:19:11;;;;;;;96.30;49.03;;;;;;;1.88;85.33;99200.53;2839735;82;21034;-71
2021/12/09 12:23:16;;;;;;;94.03;48.95;;;;;;;1.77;85.72;99202.52;2837092;84;21014;-70
2021/12/09 12:27:34;;;;;;;106.55;63.78;;;;;;;1.82;85.77;99199.98;2837464;83;21015;-70
2021/12/09 12:36:00;;;;;;;101.95;59.25;;;;;;;1.73;86.36;99208.42;2873886;82;20991;-71
2021/12/09 12:40:10;;;;;;;91.70;58.48;;;;;;;1.94;85.68;99224.59;2872687;83;21034;-70
2021/12/09 12:44:18;;;;;;;95.55;62.30;;;;;;;2.07;85.62;99222.03;2873917;83;21038;-70
2021/12/09 12:52:43;;;;;;;125.40;85.03;;;;;;;2.10;85.14;99227.56;2873897;83;21466;-71
2021/12/09 12:56:54;;;;;;;310.23;260.10;;;;;;;2.02;84.82;99226.73;2873949;82;21037;-71
2021/12/09 13:00:53;;;;;;;260.43;195.77;;;;;;;1.98;85.24;99218.70;2873336;83;21018;-70
2021/12/09 13:05:10;;;;;;;181.10;144.55;;;;;;;1.88;85.69;99224.14;2873975;83;21005;-70
2021/12/09 13:09:37;;;;;;;105.87;78.28;;;;;;;1.95;84.94;99217.55;2872362;83;20987;-70
2021/12/09 13:13:49;;;;;;;101.60;66.10;;;;;;;2.00;84.81;99211.08;2873062;83;20991;-70
2021/12/09 13:17:57;;;;;;;102.75;65.10;;;;;;;2.05;84.66;99224.37;2873676;83;21034;-70
2021/12/09 13:22:01;;;;;;;109.05;71.47;;;;;;;2.16;84.70;99217.98;2872015;83;21011;-70
2021/12/09 13:26:24;;;;;;;111.28;67.30;;;;;;;2.24;84.38;99206.51;2874444;82;21031;-70
2021/12/09 13:35:04;;;;;;;96.13;59.77;;;;;;;2.22;83.84;99204.95;2875864;82;21041;-70
2021/12/09 13:47:38;;;;;;;94.90;56.15;;;;;;;2.23;83.16;99210.56;2875242;82;21058;-70
2021/12/09 13:55:52;;;;;;;88.05;54.27;;;;;;;2.36;83.60;99219.34;2875322;83;21003;-70
2021/12/09 13:59:54;;;;;;;96.87;61.42;;;;;;;2.36;83.34;99211.46;2875200;82;21026;-70
2021/12/09 14:03:55;;;;;;;111.22;70.25;;;;;;;2.39;83.31;99215.20;2864867;83;21031;-69
2021/12/09 14:08:06;;;;;;;132.15;78.80;;;;;;;2.31;83.31;99212.20;2828694;84;20993;-69
2021/12/09 14:12:03;;;;;;;138.00;80.55;;;;;;;2.38;83.42;99208.27;2839353;84;21031;-70
2021/12/09 14:16:35;;;;;;;119.70;71.47;;;;;;;2.25;83.71;99221.31;2831004;83;21019;-69
2021/12/09 14:20:20;;;;;;;117.42;71.07;;;;;;;2.17;83.89;99217.52;2807981;84;20995;-68
2021/12/09 14:24:26;;;;;;;111.15;63.87;;;;;;;2.21;84.12;99217.20;2842051;84;21050;-68
2021/12/09 14:28:32;;;;;;;120.72;78.07;;;;;;;2.16;84.79;99217.13;2926510;81;21041;-69
2021/12/09 14:32:34;;;;;;;121.82;78.65;;;;;;;2.06;85.79;99229.98;2882611;82;21034;-70
2021/12/09 14:36:37;;;;;;;111.65;71.07;;;;;;;2.12;85.39;99217.33;2885616;82;21439;-70
2021/12/09 14:40:50;;;;;;;126.05;78.97;;;;;;;2.18;85.20;99221.83;2883517;82;21022;-70
2021/12/09 14:44:56;;;;;;;114.42;73.02;;;;;;;2.20;85.09;99217.33;2882259;82;21014;-70
2021/12/09 14:48:58;;;;;;;95.35;63.05;;;;;;;2.21;84.94;99212.45;2882267;82;21014;-70
2021/12/09 14:53:00;;;;;;;111.77;69.65;;;;;;;2.19;84.77;99207.77;2883980;82;21018;-70
2021/12/09 14:57:09;;;;;;;94.90;64.72;;;;;;;2.10;85.18;99214.45;2873925;82;20955;-70
2021/12/09 15:01:18;;;;;;;125.35;71.33;;;;;;;2.00;85.74;99202.39;2865706;82;21030;-70
2021/12/09 15:05:20;;;;;;;106.20;61.75;;;;;;;1.97;86.10;99211.77;2880493;82;20975;-70
2021/12/09 15:09:22;;;;;;;92.27;61.00;;;;;;;1.91;86.47;99216.07;2886207;82;21014;-70
2021/12/09 15:13:26;;;;;;;89.60;55.38;;;;;;;1.90;86.63;99213.94;2889015;82;21018;-68
2021/12/09 15:17:29;;;;;;;112.52;66.40;;;;;;;1.88;87.04;99213.64;2892428;82;21065;-71
2021/12/09 15:21:31;;;;;;;107.43;66.75;;;;;;;1.95;86.94;99210.55;2891472;82;20978;-73
2021/12/09 15:25:40;;;;;;;99.85;60.95;;;;;;;2.02;86.53;99214.94;2891174;81;21160;-72
2021/12/09 15:29:47;;;;;;;103.05;63.70;;;;;;;2.04;86.39;99209.11;2889987;82;21085;-73
2021/12/09 15:33:52;;;;;;;103.92;61.02;;;;;;;2.03;86.58;99207.44;2890753;82;21010;-73
2021/12/09 15:37:55;;;;;;;93.22;60.12;;;;;;;2.01;86.26;99204.07;2891606;81;21054;-72
2021/12/09 15:42:04;;;;;;;100.30;59.48;;;;;;;1.97;86.44;99206.03;2891445;82;21026;-73
2021/12/09 15:46:09;;;;;;;106.40;59.40;;;;;;;1.89;87.02;99210.08;2891127;82;21050;-73
2021/12/09 15:50:16;;;;;;;95.77;59.75;;;;;;;1.97;86.89;99201.28;2891318;82;20994;-73
2021/12/09 15:54:23;;;;;;;102.70;60.80;;;;;;;2.00;86.87;99197.14;2889671;82;21014;-73
2021/12/09 15:58:24;;;;;;;;;;;;;;;2.02;86.80;99201.81;2893985;82;21018;-73
2021/12/09 16:02:31;;;;;;;102.25;58.40;;;;;;;1.99;87.03;99199.39;2891279;82;20155;-72
2021/12/09 16:06:33;;;;;;;106.00;58.98;;;;;;;2.04;87.04;99203.88;2891360;82;20931;-73
2021/12/09 16:10:35;;;;;;;105.75;60.40;;;;;;;2.08;87.09;99196.17;2891291;82;21096;-72
2021/12/09 16:14:45;;;;;;;94.42;58.20;;;;;;;2.11;87.04;99192.03;2891395;82;20979;-73
2021/12/09 16:18:42;;;;;;;151.25;86.45;;;;;;;2.14;86.77;99194.45;2890279;82;21026;-74
2021/12/09 16:22:44;;;;;;;126.97;75.00;;;;;;;2.17;86.84;99190.80;2891015;82;21065;-74
2021/12/09 16:26:48;;;;;;;141.92;81.08;;;;;;;2.16;86.87;99190.89;2887592;82;21563;-74
2021/12/09 16:30:50;;;;;;;121.70;73.15;;;;;;;2.18;87.04;99199.05;2890997;82;21068;-75
2021/12/09 16:34:54;;;;;;;105.60;60.43;;;;;;;2.21;87.14;99204.09;2863604;82;20980;-74
2021/12/09 16:38:56;;;;;;;111.57;61.28;;;;;;;2.23;87.10;99206.14;2890845;82;20960;-74
2021/12/09 16:42:58;;;;;;;100.55;61.63;;;;;;;2.24;87.04;99206.51;2890721;82;21019;-74
2021/12/09 16:47:01;;;;;;;113.00;65.22;;;;;;;2.23;87.10;99206.14;2890965;82;21014;-74
2021/12/09 16:51:04;;;;;;;99.65;62.58;;;;;;;2.16;87.41;99214.05;2888345;82;21015;-74
2021/12/09 16:55:15;;;;;;;111.03;68.45;;;;;;;2.12;87.56;99210.77;2890697;82;20960;-73
2021/12/09 16:59:21;;;;;;;97.12;61.37;;;;;;;2.16;87.72;99218.44;2890904;82;21027;-74
2021/12/09 17:03:23;;;;;;;100.40;59.20;;;;;;;2.17;87.84;99218.84;2890476;82;20991;-74
2021/12/09 17:07:25;;;;;;;106.32;60.35;;;;;;;2.17;87.98;99216.22;2890953;82;20999;-74
2021/12/09 17:11:32;;;;;;;92.97;60.92;;;;;;;2.12;88.04;99212.08;2890953;82;21031;-73
2021/12/09 17:15:30;;;;;;;101.72;62.00;;;;;;;2.10;88.18;99217.89;2890811;82;21003;-74
2021/12/09 17:19:34;;;;;;;97.25;60.05;;;;;;;2.10;88.27;99211.34;2891470;82;21642;-73
2021/12/09 17:23:36;;;;;;;94.60;55.70;;;;;;;2.08;88.27;99209.28;2891451;82;21619;-74
2021/12/09 17:27:38;;;;;;;95.12;57.70;;;;;;;2.08;88.39;99207.15;2888489;82;21020;-74
2021/12/09 17:31:48;;;;;;;91.65;58.63;;;;;;;2.09;88.58;99201.78;2885876;82;21027;-73
2021/12/09 17:35:46;;;;;;;103.78;60.12;;;;;;;2.07;88.58;99197.11;2884456;81;21028;-73
2021/12/09 17:39:48;;;;;;;97.08;56.98;;;;;;;2.05;88.68;99192.89;2885757;82;21024;-73
2021/12/09 17:43:50;;;;;;;98.17;60.58;;;;;;;1.98;88.83;99181.48;2834356;84;21048;-74
2021/12/09 17:47:55;;;;;;;95.60;57.27;;;;;;;1.94;88.98;99178.70;2885946;82;20980;-73
2021/12/09 17:52:19;;;;;;;96.27;62.00;;;;;;;1.90;89.34;99169.34;2886123;82;20995;-74
2021/12/09 17:56:14;;;;;;;112.08;66.20;;;;;;;1.91;89.42;99163.61;2885122;82;21091;-74
2021/12/09 18:00:21;;;;;;;96.05;59.60;;;;;;;1.90;89.28;99161.48;2885654;82;21015;-73
2021/12/09 18:04:23;;;;;;;102.60;61.45;;;;;;;1.96;89.33;99165.01;2883414;82;21015;-74
2021/12/09 18:08:25;;;;;;;85.25;57.50;;;;;;;1.99;89.15;99161.36;2885815;82;21040;-69
2021/12/09 18:12:30;;;;;;;100.90;57.15;;;;;;;1.96;89.16;99156.28;2887236;82;21026;-70
2021/12/09 18:16:37;;;;;;;101.18;59.27;;;;;;;1.99;89.22;99162.19;2827013;84;21008;-68
2021/12/09 18:20:36;;;;;;;93.75;57.55;;;;;;;2.00;89.17;99166.98;2903192;81;21049;-68
2021/12/09 18:24:38;;;;;;;110.48;63.00;;;;;;;2.04;89.14;99169.77;2885030;82;21014;-69
2021/12/09 18:28:40;;;;;;;94.45;58.52;;;;;;;2.09;88.94;99162.92;2884948;82;21098;-69
2021/12/09 18:32:42;;;;;;;103.10;61.33;;;;;;;2.12;89.04;99171.41;2885639;82;21062;-69
2021/12/09 18:36:45;;;;;;;114.25;63.45;;;;;;;2.14;88.94;99164.77;2860225;83;20975;-69
2021/12/09 18:40:53;;;;;;;110.28;65.12;;;;;;;2.16;88.99;99175.14;2861557;83;21012;-69
2021/12/09 18:44:54;;;;;;;108.70;60.30;;;;;;;2.20;88.81;99168.78;2857386;83;21040;-70
2021/12/09 18:48:57;;;;;;;89.05;58.75;;;;;;;2.23;88.55;99176.45;2853922;82;21046;-69
2021/12/09 18:53:00;;;;;;;101.97;58.80;;;;;;;2.24;88.62;99166.32;2836774;84;21034;-69
2021/12/09 18:57:02;;;;;;;94.85;57.53;;;;;;;2.16;88.57;99181.70;2878619;82;21043;-70
2021/12/09 19:01:05;;;;;;;101.25;61.55;;;;;;;2.16;88.81;99178.63;2887062;82;21040;-69
2021/12/09 19:05:10;;;;;;;91.28;57.65;;;;;;;2.14;88.73;99174.77;2887012;82;21389;-68
2021/12/09 19:09:13;;;;;;;98.33;60.00;;;;;;;2.14;88.67;99176.09;2887003;81;21006;-68
2021/12/09 19:13:18;;;;;;;88.92;56.18;;;;;;;2.04;89.08;99182.88;2887115;82;21022;-70
2021/12/09 19:17:30;;;;;;;89.80;54.35;;;;;;;2.02;89.35;99179.52;2886905;81;20982;-69
2021/12/09 19:21:23;;;;;;;100.00;66.55;;;;;;;2.04;89.48;99180.27;2884747;82;21053;-69
2021/12/09 19:25:26;;;;;;;101.65;61.50;;;;;;;2.08;89.35;99189.61;2888218;81;21415;-69
2021/12/09 19:29:28;;;;;;;95.67;54.05;;;;;;;2.11;89.42;99188.09;2880928;82;21030;-70